createdAt,value
2018-01-03T00:00:23.809Z,64.24
2018-01-03T00:01:23.808Z,64.34
2018-01-03T00:02:23.799Z,64.34
2018-01-03T00:03:23.793Z,64.34
2018-01-03T00:04:23.787Z,64.34
2018-01-03T00:05:23.782Z,63.95
2018-01-03T00:06:23.778Z,64.24
2018-01-03T00:07:23.773Z,64.14
2018-01-03T00:08:23.767Z,64.62
2018-01-03T00:09:23.762Z,64.34
2018-01-03T00:10:23.758Z,64.62
2018-01-03T00:11:23.752Z,64.43
2018-01-03T00:12:23.746Z,64.43
2018-01-03T00:13:23.741Z,64.34
2018-01-03T00:14:23.737Z,64.53
2018-01-03T00:15:23.732Z,64.53
2018-01-03T00:16:23.725Z,64.24
2018-01-03T00:17:23.724Z,64.24
2018-01-03T00:18:23.716Z,64.34
2018-01-03T00:19:23.711Z,64.24
2018-01-03T00:20:23.705Z,64.34
2018-01-03T00:21:23.701Z,64.43
2018-01-03T00:22:23.695Z,64.43
2018-01-03T00:23:23.690Z,64.24
2018-01-03T00:24:23.684Z,64.05
2018-01-03T00:25:23.678Z,64.24
2018-01-03T00:26:23.675Z,65.00
2018-01-03T00:27:23.670Z,64.34
2018-01-03T00:28:23.663Z,64.72
2018-01-03T00:29:23.658Z,64.72
2018-01-03T00:30:23.655Z,65.19
2018-01-03T00:31:23.649Z,65.28
2018-01-03T00:32:23.644Z,64.81
2018-01-03T00:33:23.639Z,64.81
2018-01-03T00:34:23.635Z,64.81
2018-01-03T00:35:23.628Z,65.00
2018-01-03T00:36:23.624Z,65.00
2018-01-03T00:37:23.618Z,65.28
2018-01-03T00:38:23.613Z,65.19
2018-01-03T00:39:23.610Z,65.38
2018-01-03T00:40:23.604Z,64.72
2018-01-03T00:41:23.599Z,65.38
2018-01-03T00:42:23.594Z,64.81
2018-01-03T00:43:23.589Z,65.19
2018-01-03T00:44:23.583Z,64.81
2018-01-03T00:45:23.578Z,65.38
2018-01-03T00:46:23.573Z,64.90
2018-01-03T00:47:23.568Z,64.81
2018-01-03T00:48:23.563Z,65.19
2018-01-03T00:49:23.557Z,65.57
2018-01-03T00:50:23.553Z,65.19
2018-01-03T00:51:23.549Z,65.47
2018-01-03T00:52:23.543Z,65.47
2018-01-03T00:53:23.538Z,66.05
2018-01-03T00:54:23.533Z,66.05
2018-01-03T00:55:23.534Z,65.67
2018-01-03T00:56:23.523Z,66.05
2018-01-03T00:57:23.519Z,66.14
2018-01-03T00:58:23.512Z,66.27
2018-01-03T00:59:23.509Z,66.33
2018-01-03T01:00:23.502Z,66.24
2018-01-03T01:01:23.497Z,65.86
2018-01-03T01:02:23.493Z,66.24
2018-01-03T01:03:23.488Z,66.61
2018-01-03T01:04:23.482Z,66.52
2018-01-03T01:05:23.477Z,66.65
2018-01-03T01:06:23.475Z,67.00
2018-01-03T01:07:23.468Z,66.90
2018-01-03T01:08:23.463Z,67.09
2018-01-03T01:09:23.457Z,67.00
2018-01-03T01:10:23.453Z,66.84
2018-01-03T01:11:23.449Z,67.47
2018-01-03T01:12:23.443Z,67.57
2018-01-03T01:13:23.439Z,67.69
2018-01-03T01:14:23.432Z,67.60
2018-01-03T01:15:23.428Z,68.13
2018-01-03T01:16:23.422Z,68.65
2018-01-03T01:17:23.418Z,68.55
2018-01-03T01:18:23.414Z,69.12
2018-01-03T01:19:23.409Z,69.60
2018-01-03T01:20:23.404Z,69.79
2018-01-03T01:21:23.399Z,69.50
2018-01-03T01:22:23.394Z,70.93
2018-01-03T01:23:23.389Z,70.54
2018-01-03T01:24:23.384Z,70.54
2018-01-03T01:25:23.378Z,70.93
2018-01-03T01:26:23.373Z,70.93
2018-01-03T01:27:23.370Z,70.64
2018-01-03T01:28:23.365Z,70.83
2018-01-03T01:29:23.361Z,70.54
2018-01-03T01:30:23.355Z,70.74
2018-01-03T01:31:23.350Z,70.83
2018-01-03T01:32:23.345Z,70.64
2018-01-03T01:33:23.340Z,70.83
2018-01-03T01:34:23.336Z,70.74
2018-01-03T01:35:23.331Z,70.74
2018-01-03T01:36:23.324Z,71.02
2018-01-03T01:37:23.321Z,71.78
2018-01-03T01:38:23.317Z,71.69
2018-01-03T01:39:23.310Z,71.50
2018-01-03T01:40:23.306Z,71.31
2018-01-03T01:41:23.300Z,71.88
2018-01-03T01:42:23.296Z,72.07
2018-01-03T01:43:23.292Z,72.45
2018-01-03T01:44:23.286Z,73.02
2018-01-03T01:45:23.283Z,73.02
2018-01-03T01:46:23.279Z,72.64
2018-01-03T01:47:23.274Z,73.02
2018-01-03T01:48:23.269Z,73.97
2018-01-03T01:49:23.264Z,74.44
2018-01-03T01:50:23.259Z,74.54
2018-01-03T01:51:23.257Z,74.63
2018-01-03T01:52:23.248Z,74.82
2018-01-03T01:53:23.244Z,75.21
2018-01-03T01:54:23.240Z,75.02
2018-01-03T01:55:23.236Z,75.02
2018-01-03T01:56:23.231Z,74.54
2018-01-03T01:57:23.227Z,74.54
2018-01-03T01:58:23.222Z,74.54
2018-01-03T01:59:23.218Z,74.44
2018-01-03T02:00:23.211Z,74.35
2018-01-03T02:01:23.207Z,74.35
2018-01-03T02:02:23.204Z,73.49
2018-01-03T02:03:23.198Z,73.78
2018-01-03T02:04:23.194Z,73.97
2018-01-03T02:05:23.190Z,72.92
2018-01-03T02:06:23.184Z,73.88
2018-01-03T02:07:23.180Z,73.30
2018-01-03T02:08:23.174Z,72.74
2018-01-03T02:09:23.170Z,72.74
2018-01-03T02:10:23.165Z,71.88
2018-01-03T02:11:23.161Z,71.97
2018-01-03T02:12:23.156Z,71.97
2018-01-03T02:13:23.151Z,71.22
2018-01-03T02:14:23.148Z,71.41
2018-01-03T02:15:23.151Z,70.64
2018-01-03T02:16:23.136Z,71.02
2018-01-03T02:17:23.132Z,70.93
2018-01-03T02:18:23.128Z,70.93
2018-01-03T02:19:23.123Z,70.93
2018-01-03T02:20:23.119Z,70.64
2018-01-03T02:21:23.114Z,70.93
2018-01-03T02:22:23.109Z,71.31
2018-01-03T02:23:23.110Z,71.78
2018-01-03T02:24:23.099Z,72.07
2018-01-03T02:25:23.095Z,72.64
2018-01-03T02:26:23.089Z,72.83
2018-01-03T02:27:23.085Z,72.45
2018-01-03T02:28:23.080Z,72.16
2018-01-03T02:29:23.076Z,71.88
2018-01-03T02:30:23.072Z,71.97
2018-01-03T02:31:23.067Z,72.64
2018-01-03T02:32:23.062Z,72.74
2018-01-03T02:33:23.058Z,73.44
2018-01-03T02:34:23.052Z,73.15
2018-01-03T02:35:23.048Z,72.67
2018-01-03T02:36:23.042Z,73.06
2018-01-03T02:37:23.038Z,74.29
2018-01-03T02:38:23.034Z,74.48
2018-01-03T02:39:23.030Z,74.29
2018-01-03T02:40:23.024Z,74.01
2018-01-03T02:41:23.019Z,73.82
2018-01-03T02:42:23.013Z,73.63
2018-01-03T02:43:23.010Z,73.15
2018-01-03T02:44:23.004Z,73.25
2018-01-03T02:45:22.999Z,73.44
2018-01-03T02:46:22.996Z,73.53
2018-01-03T02:47:22.991Z,73.15
2018-01-03T02:48:22.985Z,74.20
2018-01-03T02:49:22.981Z,73.82
2018-01-03T02:50:22.977Z,73.15
2018-01-03T02:51:22.971Z,73.15
2018-01-03T02:52:22.967Z,72.86
2018-01-03T02:53:22.962Z,72.77
2018-01-03T02:54:22.958Z,72.96
2018-01-03T02:55:22.954Z,72.67
2018-01-03T02:56:22.949Z,72.86
2018-01-03T02:57:22.944Z,72.86
2018-01-03T02:58:22.939Z,72.39
2018-01-03T02:59:22.935Z,72.11
2018-01-03T03:00:22.928Z,72.01
2018-01-03T03:01:22.925Z,71.91
2018-01-03T03:02:22.921Z,72.11
2018-01-03T03:03:22.917Z,72.86
2018-01-03T03:04:22.910Z,72.58
2018-01-03T03:05:22.906Z,73.06
2018-01-03T03:06:22.901Z,72.77
2018-01-03T03:07:22.901Z,72.67
2018-01-03T03:08:22.890Z,73.72
2018-01-03T03:09:22.886Z,73.82
2018-01-03T03:10:22.883Z,74.10
2018-01-03T03:11:22.878Z,74.10
2018-01-03T03:12:22.876Z,73.72
2018-01-03T03:13:22.868Z,73.53
2018-01-03T03:14:22.864Z,73.06
2018-01-03T03:15:22.859Z,73.15
2018-01-03T03:16:22.855Z,73.06
2018-01-03T03:17:22.850Z,72.96
2018-01-03T03:18:22.845Z,73.06
2018-01-03T03:19:22.840Z,73.44
2018-01-03T03:20:22.835Z,73.15
2018-01-03T03:21:22.831Z,73.82
2018-01-03T03:22:22.827Z,73.72
2018-01-03T03:23:22.823Z,73.82
2018-01-03T03:24:22.816Z,73.53
2018-01-03T03:25:22.813Z,73.15
2018-01-03T03:26:22.808Z,72.96
2018-01-03T03:27:22.804Z,73.34
2018-01-03T03:28:22.799Z,73.19
2018-01-03T03:29:22.794Z,73.44
2018-01-03T03:30:22.792Z,73.19
2018-01-03T03:31:22.786Z,73.10
2018-01-03T03:32:22.781Z,73.10
2018-01-03T03:33:22.775Z,73.10
2018-01-03T03:34:22.772Z,74.43
2018-01-03T03:35:22.769Z,75.67
2018-01-03T03:36:22.765Z,76.52
2018-01-03T03:37:22.759Z,75.95
2018-01-03T03:38:22.754Z,76.90
2018-01-03T03:39:22.749Z,76.61
2018-01-03T03:40:22.744Z,76.14
2018-01-03T03:41:22.740Z,77.00
2018-01-03T03:42:22.738Z,77.19
2018-01-03T03:43:22.732Z,76.61
2018-01-03T03:44:22.727Z,76.71
2018-01-03T03:45:22.723Z,76.71
2018-01-03T03:46:22.718Z,75.95
2018-01-03T03:47:22.713Z,75.57
2018-01-03T03:48:22.710Z,75.28
2018-01-03T03:49:22.705Z,74.99
2018-01-03T03:50:22.702Z,74.90
2018-01-03T03:51:22.704Z,74.71
2018-01-03T03:52:22.692Z,74.56
2018-01-03T03:53:22.688Z,73.85
2018-01-03T03:54:22.683Z,73.89
2018-01-03T03:55:22.679Z,73.57
2018-01-03T03:56:22.675Z,73.00
2018-01-03T03:57:22.671Z,72.81
2018-01-03T03:58:22.668Z,71.70
2018-01-03T03:59:22.664Z,72.14
2018-01-03T04:00:22.658Z,72.17
2018-01-03T04:01:22.654Z,71.86
2018-01-03T04:02:22.649Z,71.22
2018-01-03T04:03:22.647Z,71.42
2018-01-03T04:04:22.642Z,71.00
2018-01-03T04:05:22.639Z,71.00
2018-01-03T04:06:22.634Z,71.70
2018-01-03T04:07:22.629Z,71.80
2018-01-03T04:08:22.624Z,71.22
2018-01-03T04:09:22.621Z,71.13
2018-01-03T04:10:22.617Z,71.13
2018-01-03T04:11:22.613Z,71.13
2018-01-03T04:12:22.609Z,70.84
2018-01-03T04:13:22.605Z,71.03
2018-01-03T04:14:22.603Z,71.22
2018-01-03T04:15:22.598Z,70.94
2018-01-03T04:16:22.592Z,71.03
2018-01-03T04:17:22.589Z,70.94
2018-01-03T04:18:22.632Z,70.47
2018-01-03T04:19:22.580Z,74.65
2018-01-03T04:20:22.576Z,78.37
2018-01-03T04:21:22.571Z,83.70
2018-01-03T04:22:22.569Z,89.75
2018-01-03T04:23:22.566Z,89.46
2018-01-03T04:24:22.561Z,89.17
2018-01-03T04:25:22.556Z,92.03
2018-01-03T04:26:22.553Z,91.36
2018-01-03T04:27:22.554Z,90.41
2018-01-03T04:28:22.544Z,89.17
2018-01-03T04:29:22.540Z,93.17
2018-01-03T04:30:22.537Z,90.79
2018-01-03T04:31:22.534Z,91.65
2018-01-03T04:32:22.528Z,91.46
2018-01-03T04:33:22.523Z,93.37
2018-01-03T04:34:22.520Z,94.32
2018-01-03T04:35:22.517Z,94.70
2018-01-03T04:36:22.513Z,95.17
2018-01-03T04:37:22.511Z,98.99
2018-01-03T04:38:22.505Z,99.18
2018-01-03T04:39:22.501Z,99.99
2018-01-03T04:40:22.496Z,97.94
2018-01-03T04:41:22.493Z,98.41
2018-01-03T04:42:22.489Z,97.27
2018-01-03T04:43:22.492Z,95.98
2018-01-03T04:44:22.481Z,96.46
2018-01-03T04:45:22.478Z,96.36
2018-01-03T04:46:22.477Z,95.94
2018-01-03T04:47:22.470Z,95.32
2018-01-03T04:48:22.465Z,95.03
2018-01-03T04:49:22.462Z,93.98
2018-01-03T04:50:22.459Z,94.17
2018-01-03T04:51:22.455Z,93.98
2018-01-03T04:52:22.449Z,94.37
2018-01-03T04:53:22.446Z,93.98
2018-01-03T04:54:22.444Z,93.32
2018-01-03T04:55:22.439Z,93.13
2018-01-03T04:56:22.435Z,93.03
2018-01-03T04:57:22.431Z,92.27
2018-01-03T04:58:22.427Z,92.94
2018-01-03T04:59:22.424Z,93.89
2018-01-03T05:00:22.420Z,93.32
2018-01-03T05:01:22.419Z,91.99
2018-01-03T05:02:22.413Z,92.36
2018-01-03T05:03:22.409Z,91.51
2018-01-03T05:04:22.404Z,92.55
2018-01-03T05:05:22.401Z,91.79
2018-01-03T05:06:22.398Z,91.03
2018-01-03T05:07:22.394Z,90.84
2018-01-03T05:08:22.390Z,91.31
2018-01-03T05:09:22.385Z,91.31
2018-01-03T05:10:22.383Z,92.36
2018-01-03T05:11:22.379Z,92.27
2018-01-03T05:12:22.375Z,92.27
2018-01-03T05:13:22.371Z,92.55
2018-01-03T05:14:22.367Z,92.46
2018-01-03T05:15:22.365Z,92.08
2018-01-03T05:16:22.360Z,92.55
2018-01-03T05:17:22.357Z,93.13
2018-01-03T05:18:22.356Z,93.32
2018-01-03T05:19:22.351Z,94.27
2018-01-03T05:20:22.346Z,93.13
2018-01-03T05:21:22.344Z,93.32
2018-01-03T05:22:22.339Z,91.51
2018-01-03T05:23:22.338Z,92.94
2018-01-03T05:24:22.332Z,92.46
2018-01-03T05:25:22.327Z,92.84
2018-01-03T05:26:22.323Z,92.65
2018-01-03T05:27:22.320Z,93.51
2018-01-03T05:28:22.318Z,93.41
2018-01-03T05:29:22.314Z,93.03
2018-01-03T05:30:22.309Z,92.55
2018-01-03T05:31:22.308Z,93.51
2018-01-03T05:32:22.300Z,93.70
2018-01-03T05:33:22.298Z,92.65
2018-01-03T05:34:22.295Z,93.98
2018-01-03T05:35:22.291Z,93.13
2018-01-03T05:36:22.289Z,93.89
2018-01-03T05:37:22.282Z,92.99
2018-01-03T05:38:22.279Z,93.51
2018-01-03T05:39:22.278Z,93.79
2018-01-03T05:40:22.272Z,93.03
2018-01-03T05:41:22.269Z,94.46
2018-01-03T05:42:22.280Z,94.74
2018-01-03T05:43:22.262Z,95.89
2018-01-03T05:44:22.257Z,96.46
2018-01-03T05:45:22.254Z,98.18
2018-01-03T05:46:22.251Z,99.03
2018-01-03T05:47:22.248Z,98.18
2018-01-03T05:48:22.243Z,99.79
2018-01-03T05:49:22.238Z,98.36
2018-01-03T05:50:22.236Z,98.94
2018-01-03T05:51:22.233Z,99.99
2018-01-03T05:52:22.227Z,99.99
2018-01-03T05:53:22.225Z,99.99
2018-01-03T05:54:22.220Z,99.99
2018-01-03T05:55:22.217Z,99.99
2018-01-03T05:56:22.213Z,99.99
2018-01-03T05:57:22.210Z,99.99
2018-01-03T05:58:22.207Z,99.99
2018-01-03T05:59:22.203Z,99.99
2018-01-03T06:00:22.198Z,99.99
2018-01-03T06:01:22.195Z,99.99
2018-01-03T06:02:22.192Z,99.99
2018-01-03T06:03:22.188Z,99.99
2018-01-03T06:04:22.183Z,99.99
2018-01-03T06:05:22.181Z,99.99
2018-01-03T06:06:22.177Z,99.99
2018-01-03T06:07:22.173Z,99.99
2018-01-03T06:08:22.168Z,99.99
2018-01-03T06:09:22.165Z,99.99
2018-01-03T06:10:22.162Z,99.99
2018-01-03T06:11:22.159Z,99.99
2018-01-03T06:12:22.154Z,99.99
2018-01-03T06:13:22.150Z,99.99
2018-01-03T06:14:22.146Z,99.99
2018-01-03T06:15:22.142Z,99.99
2018-01-03T06:16:22.138Z,99.99
2018-01-03T06:17:22.134Z,99.99
2018-01-03T06:18:22.131Z,99.99
2018-01-03T06:19:22.127Z,99.99
2018-01-03T06:20:22.126Z,99.99
2018-01-03T06:21:22.119Z,99.99
2018-01-03T06:22:22.119Z,99.99
2018-01-03T06:23:22.112Z,99.99
2018-01-03T06:24:22.108Z,99.99
2018-01-03T06:25:22.104Z,99.99
2018-01-03T06:26:22.100Z,99.99
2018-01-03T06:27:22.096Z,99.99
2018-01-03T06:28:22.091Z,99.99
2018-01-03T06:29:22.094Z,99.99
2018-01-03T06:30:22.084Z,99.99
2018-01-03T06:31:22.082Z,99.99
2018-01-03T06:32:22.077Z,99.99
2018-01-03T06:33:22.073Z,99.99
2018-01-03T06:34:22.070Z,99.99
2018-01-03T06:35:22.066Z,99.99
2018-01-03T06:36:22.061Z,99.99
2018-01-03T06:37:22.058Z,99.99
2018-01-03T06:38:22.054Z,99.99
2018-01-03T06:39:22.051Z,99.99
2018-01-03T06:40:22.047Z,99.99
2018-01-03T06:41:22.042Z,99.99
2018-01-03T06:42:22.039Z,99.99
2018-01-03T06:43:22.035Z,99.99
2018-01-03T06:44:22.031Z,99.99
2018-01-03T06:45:22.060Z,99.99
2018-01-03T06:46:22.023Z,99.99
2018-01-03T06:47:22.019Z,99.99
2018-01-03T06:48:22.015Z,99.99
2018-01-03T06:49:22.011Z,99.99
2018-01-03T06:50:22.008Z,99.99
2018-01-03T06:51:22.004Z,99.99
2018-01-03T06:52:21.999Z,99.99
2018-01-03T06:53:21.995Z,99.99
2018-01-03T06:54:21.992Z,99.99
2018-01-03T06:55:21.988Z,99.99
2018-01-03T06:56:21.983Z,99.99
2018-01-03T06:57:21.980Z,99.99
2018-01-03T06:58:21.975Z,99.99
2018-01-03T06:59:21.973Z,99.99
2018-01-03T07:00:21.967Z,99.99
2018-01-03T07:01:21.964Z,99.99
2018-01-03T07:02:21.960Z,99.99
2018-01-03T07:03:21.956Z,99.99
2018-01-03T07:04:21.952Z,99.99
2018-01-03T07:05:21.949Z,99.99
2018-01-03T07:06:21.944Z,99.99
2018-01-03T07:07:21.941Z,99.99
2018-01-03T07:08:21.936Z,99.99
2018-01-03T07:09:21.932Z,99.99
2018-01-03T07:10:21.927Z,99.99
2018-01-03T07:11:21.925Z,99.99
2018-01-03T07:12:21.920Z,99.99
2018-01-03T07:13:21.916Z,99.99
2018-01-03T07:14:21.912Z,99.99
2018-01-03T07:15:21.909Z,99.99
2018-01-03T07:16:21.903Z,99.99
2018-01-03T07:17:21.900Z,99.99
2018-01-03T07:18:21.896Z,99.99
2018-01-03T07:19:21.892Z,99.99
2018-01-03T07:20:21.888Z,99.99
2018-01-03T07:21:21.884Z,99.99
2018-01-03T07:22:21.878Z,99.99
2018-01-03T07:23:21.876Z,99.99
2018-01-03T07:24:21.871Z,99.99
2018-01-03T07:25:21.871Z,99.99
2018-01-03T07:26:21.864Z,99.99
2018-01-03T07:27:21.859Z,99.99
2018-01-03T07:28:21.855Z,99.99
2018-01-03T07:29:21.854Z,99.99
2018-01-03T07:30:21.847Z,99.99
2018-01-03T07:31:21.844Z,99.99
2018-01-03T07:32:21.839Z,99.99
2018-01-03T07:33:21.835Z,99.99
2018-01-03T07:34:21.831Z,99.99
2018-01-03T07:35:21.828Z,99.99
2018-01-03T07:36:21.826Z,99.99
2018-01-03T07:37:21.818Z,99.99
2018-01-03T07:38:21.815Z,99.99
2018-01-03T07:39:21.811Z,99.99
2018-01-03T07:40:21.806Z,99.99
2018-01-03T07:41:21.802Z,99.99
2018-01-03T07:42:21.798Z,99.99
2018-01-03T07:43:21.793Z,99.99
2018-01-03T07:44:21.787Z,99.99
2018-01-03T07:45:21.785Z,99.99
2018-01-03T07:46:21.780Z,99.99
2018-01-03T07:47:21.776Z,99.99
2018-01-03T07:48:21.771Z,99.99
2018-01-03T07:49:21.767Z,99.99
2018-01-03T07:50:21.764Z,99.99
2018-01-03T07:51:21.757Z,99.99
2018-01-03T07:52:21.753Z,99.99
2018-01-03T07:53:21.748Z,99.99
2018-01-03T07:54:21.744Z,99.99
2018-01-03T07:55:21.739Z,99.99
2018-01-03T07:56:21.734Z,99.99
2018-01-03T07:57:21.730Z,99.99
2018-01-03T07:58:21.724Z,99.99
2018-01-03T07:59:21.720Z,99.99
2018-01-03T08:00:21.715Z,99.99
2018-01-03T08:01:21.710Z,99.99
2018-01-03T08:02:21.707Z,99.99
2018-01-03T08:03:21.702Z,99.99
2018-01-03T08:04:21.696Z,99.99
2018-01-03T08:05:21.692Z,99.99
2018-01-03T08:06:21.687Z,99.99
2018-01-03T08:07:21.700Z,99.99
2018-01-03T08:08:21.676Z,99.99
2018-01-03T08:09:21.670Z,99.99
2018-01-03T08:10:21.668Z,99.99
2018-01-03T08:11:21.663Z,99.99
2018-01-03T08:12:21.662Z,99.99
2018-01-03T08:13:21.653Z,99.99
2018-01-03T08:14:21.647Z,99.99
2018-01-03T08:15:21.642Z,99.99
2018-01-03T08:16:21.637Z,99.99
2018-01-03T08:17:21.632Z,99.99
2018-01-03T08:18:21.627Z,99.99
2018-01-03T08:19:21.622Z,99.99
2018-01-03T08:20:21.616Z,99.99
2018-01-03T08:21:21.611Z,99.99
2018-01-03T08:22:21.607Z,99.99
2018-01-03T08:23:21.602Z,99.99
2018-01-03T08:24:21.596Z,99.99
2018-01-03T08:25:21.591Z,99.99
2018-01-03T08:26:21.586Z,99.99
2018-01-03T08:27:21.582Z,99.99
2018-01-03T08:28:21.575Z,99.99
2018-01-03T08:29:21.570Z,99.99
2018-01-03T08:30:21.566Z,99.99
2018-01-03T08:31:21.561Z,99.99
2018-01-03T08:32:21.555Z,99.99
2018-01-03T08:33:21.550Z,99.99
2018-01-03T08:34:21.549Z,99.99
2018-01-03T08:35:21.541Z,99.99
2018-01-03T08:36:21.536Z,99.99
2018-01-03T08:37:21.530Z,99.99
2018-01-03T08:38:21.525Z,99.99
2018-01-03T08:39:21.518Z,99.99
2018-01-03T08:40:21.514Z,99.99
2018-01-03T08:41:21.509Z,99.99
2018-01-03T08:42:21.504Z,99.99
2018-01-03T08:43:21.499Z,99.99
2018-01-03T08:44:21.493Z,99.99
2018-01-03T08:45:21.489Z,99.99
2018-01-03T08:46:21.484Z,99.99
2018-01-03T08:47:21.478Z,99.99
2018-01-03T08:48:21.472Z,99.99
2018-01-03T08:49:21.468Z,99.99
2018-01-03T08:50:21.484Z,99.99
2018-01-03T08:51:21.458Z,99.99
2018-01-03T08:52:21.451Z,99.99
2018-01-03T08:53:21.447Z,99.99
2018-01-03T08:54:21.442Z,99.99
2018-01-03T08:55:21.438Z,99.99
2018-01-03T08:56:21.431Z,99.99
2018-01-03T08:57:21.426Z,99.99
2018-01-03T08:58:21.421Z,99.99
2018-01-03T08:59:21.416Z,99.99
2018-01-03T09:00:21.410Z,99.99
2018-01-03T09:01:21.405Z,99.99
2018-01-03T09:02:21.399Z,99.99
2018-01-03T09:03:21.395Z,99.99
2018-01-03T09:04:21.389Z,99.99
2018-01-03T09:05:21.385Z,99.99
2018-01-03T09:06:21.379Z,99.99
2018-01-03T09:07:21.374Z,99.99
2018-01-03T09:08:21.368Z,99.99
2018-01-03T09:09:21.365Z,99.99
2018-01-03T09:10:21.358Z,99.99
2018-01-03T09:11:21.353Z,99.99
2018-01-03T09:12:21.347Z,99.99
2018-01-03T09:13:21.342Z,99.99
2018-01-03T09:14:21.337Z,99.99
2018-01-03T09:15:21.368Z,99.99
2018-01-03T09:16:21.327Z,99.99
2018-01-03T09:17:21.322Z,99.99
2018-01-03T09:18:21.317Z,99.99
2018-01-03T09:19:21.313Z,99.99
2018-01-03T09:20:21.307Z,99.99
2018-01-03T09:21:21.301Z,99.99
2018-01-03T09:22:21.297Z,99.99
2018-01-03T09:23:21.293Z,99.99
2018-01-03T09:24:21.288Z,99.99
2018-01-03T09:25:21.282Z,99.99
2018-01-03T09:26:21.277Z,99.99
2018-01-03T09:27:21.272Z,99.99
2018-01-03T09:28:21.269Z,99.99
2018-01-03T09:29:21.263Z,99.99
2018-01-03T09:30:21.260Z,99.99
2018-01-03T09:31:21.252Z,99.99
2018-01-03T09:32:21.255Z,99.99
2018-01-03T09:33:21.243Z,99.99
2018-01-03T09:34:21.241Z,99.99
2018-01-03T09:35:21.237Z,99.99
2018-01-03T09:36:21.228Z,99.99
2018-01-03T09:37:21.224Z,99.99
2018-01-03T09:38:21.219Z,99.99
2018-01-03T09:39:21.214Z,99.99
2018-01-03T09:40:21.208Z,99.99
2018-01-03T09:41:21.204Z,99.99
2018-01-03T09:42:21.199Z,99.99
2018-01-03T09:43:21.195Z,99.99
2018-01-03T09:44:21.189Z,99.99
2018-01-03T09:45:21.189Z,99.99
2018-01-03T09:46:21.181Z,99.99
2018-01-03T09:47:21.176Z,99.99
2018-01-03T09:48:21.170Z,99.99
2018-01-03T09:49:21.166Z,99.99
2018-01-03T09:50:21.161Z,99.99
2018-01-03T09:51:21.157Z,99.99
2018-01-03T09:52:21.152Z,99.99
2018-01-03T09:53:21.146Z,99.99
2018-01-03T09:54:21.143Z,99.99
2018-01-03T09:55:21.139Z,99.99
2018-01-03T09:56:21.154Z,99.99
2018-01-03T09:57:21.128Z,99.99
2018-01-03T09:58:21.123Z,99.99
2018-01-03T09:59:21.120Z,99.99
2018-01-03T10:00:21.114Z,99.99
2018-01-03T10:01:21.109Z,99.99
2018-01-03T10:02:21.105Z,99.99
2018-01-03T10:03:21.100Z,99.99
2018-01-03T10:04:21.096Z,99.99
2018-01-03T10:05:21.090Z,99.99
2018-01-03T10:06:21.088Z,99.99
2018-01-03T10:07:21.081Z,99.99
2018-01-03T10:08:21.076Z,99.60
2018-01-03T10:09:21.071Z,99.64
2018-01-03T10:10:21.068Z,99.60
2018-01-03T10:11:21.063Z,99.99
2018-01-03T10:12:21.058Z,99.12
2018-01-03T10:13:21.053Z,99.02
2018-01-03T10:14:21.048Z,99.45
2018-01-03T10:15:21.043Z,99.99
2018-01-03T10:16:21.084Z,99.55
2018-01-03T10:17:21.035Z,99.99
2018-01-03T10:18:21.029Z,99.64
2018-01-03T10:19:21.026Z,99.99
2018-01-03T10:20:21.021Z,99.55
2018-01-03T10:21:21.016Z,99.26
2018-01-03T10:22:21.012Z,99.16
2018-01-03T10:23:21.006Z,99.64
2018-01-03T10:24:21.002Z,99.64
2018-01-03T10:25:20.998Z,99.55
2018-01-03T10:26:20.993Z,99.16
2018-01-03T10:27:20.989Z,99.50
2018-01-03T10:28:20.984Z,99.99
2018-01-03T10:29:20.979Z,99.60
2018-01-03T10:30:20.975Z,99.41
2018-01-03T10:31:20.969Z,99.36
2018-01-03T10:32:20.965Z,99.99
2018-01-03T10:33:20.961Z,99.99
2018-01-03T10:34:20.958Z,99.99
2018-01-03T10:35:20.952Z,99.99
2018-01-03T10:36:20.946Z,99.99
2018-01-03T10:37:20.942Z,99.99
2018-01-03T10:38:20.938Z,99.99
2018-01-03T10:39:20.933Z,99.99
2018-01-03T10:40:20.929Z,99.99
2018-01-03T10:41:20.924Z,99.99
2018-01-03T10:42:20.920Z,99.99
2018-01-03T10:43:20.915Z,99.99
2018-01-03T10:44:20.909Z,99.99
2018-01-03T10:45:20.905Z,99.99
2018-01-03T10:46:20.901Z,99.99
2018-01-03T10:47:20.895Z,99.99
2018-01-03T10:48:20.891Z,99.99
2018-01-03T10:49:20.887Z,99.99
2018-01-03T10:50:20.881Z,99.99
2018-01-03T10:51:20.879Z,99.99
2018-01-03T10:52:20.873Z,99.99
2018-01-03T10:53:20.868Z,99.99
2018-01-03T10:54:20.863Z,99.99
2018-01-03T10:55:20.859Z,99.99
2018-01-03T10:56:20.852Z,99.99
2018-01-03T10:57:20.848Z,99.99
2018-01-03T10:58:20.845Z,99.99
2018-01-03T10:59:20.839Z,99.99
2018-01-03T11:00:20.833Z,99.99
2018-01-03T11:01:20.829Z,99.99
2018-01-03T11:02:20.824Z,99.99
2018-01-03T11:03:20.818Z,99.83
2018-01-03T11:04:20.813Z,99.99
2018-01-03T11:05:20.808Z,99.99
2018-01-03T11:06:20.802Z,99.16
2018-01-03T11:07:20.799Z,99.99
2018-01-03T11:08:20.791Z,99.99
2018-01-03T11:09:20.788Z,99.99
2018-01-03T11:10:20.783Z,99.35
2018-01-03T11:11:20.778Z,99.99
2018-01-03T11:12:20.772Z,99.16
2018-01-03T11:13:20.767Z,98.88
2018-01-03T11:14:20.762Z,98.88
2018-01-03T11:15:20.756Z,98.59
2018-01-03T11:16:20.750Z,98.59
2018-01-03T11:17:20.745Z,98.31
2018-01-03T11:18:20.741Z,99.44
2018-01-03T11:19:20.735Z,98.21
2018-01-03T11:20:20.730Z,98.02
2018-01-03T11:21:20.724Z,98.79
2018-01-03T11:22:20.719Z,98.79
2018-01-03T11:23:20.714Z,98.31
2018-01-03T11:24:20.708Z,97.74
2018-01-03T11:25:20.703Z,97.92
2018-01-03T11:26:20.752Z,96.41
2018-01-03T11:27:20.693Z,95.79
2018-01-03T11:28:20.686Z,95.55
2018-01-03T11:29:20.681Z,95.70
2018-01-03T11:30:20.676Z,95.94
2018-01-03T11:31:20.671Z,95.08
2018-01-03T11:32:20.667Z,93.46
2018-01-03T11:33:20.659Z,93.51
2018-01-03T11:34:20.654Z,94.79
2018-01-03T11:35:20.648Z,95.60
2018-01-03T11:36:20.641Z,94.51
2018-01-03T11:37:20.637Z,95.03
2018-01-03T11:38:20.632Z,96.03
2018-01-03T11:39:20.626Z,95.75
2018-01-03T11:40:20.620Z,93.99
2018-01-03T11:41:20.615Z,93.32
2018-01-03T11:42:20.609Z,95.46
2018-01-03T11:43:20.604Z,94.32
2018-01-03T11:44:20.597Z,93.37
2018-01-03T11:45:20.591Z,93.70
2018-01-03T11:46:20.585Z,93.32
2018-01-03T11:47:20.580Z,93.70
2018-01-03T11:48:20.573Z,94.46
2018-01-03T11:49:20.569Z,93.04
2018-01-03T11:50:20.564Z,94.03
2018-01-03T11:51:20.559Z,94.23
2018-01-03T11:52:20.552Z,92.51
2018-01-03T11:53:20.547Z,93.04
2018-01-03T11:54:20.542Z,92.85
2018-01-03T11:55:20.536Z,92.37
2018-01-03T11:56:20.529Z,92.47
2018-01-03T11:57:20.524Z,93.04
2018-01-03T11:58:20.518Z,94.46
2018-01-03T11:59:20.512Z,94.08
2018-01-03T12:00:20.506Z,91.99
2018-01-03T12:01:20.501Z,93.08
2018-01-03T12:02:20.495Z,95.36
2018-01-03T12:03:20.488Z,94.13
2018-01-03T12:04:20.482Z,93.08
2018-01-03T12:05:20.476Z,94.03
2018-01-03T12:06:20.470Z,94.89
2018-01-03T12:07:20.465Z,95.36
2018-01-03T12:08:20.459Z,96.41
2018-01-03T12:09:20.453Z,94.42
2018-01-03T12:10:20.452Z,93.75
2018-01-03T12:11:20.443Z,94.70
2018-01-03T12:12:20.438Z,94.13
2018-01-03T12:13:20.433Z,94.32
2018-01-03T12:14:20.425Z,93.46
2018-01-03T12:15:20.419Z,93.46
2018-01-03T12:16:20.412Z,92.18
2018-01-03T12:17:20.407Z,93.89
2018-01-03T12:18:20.401Z,94.70
2018-01-03T12:19:20.395Z,94.23
2018-01-03T12:20:20.389Z,94.42
2018-01-03T12:21:20.384Z,95.17
2018-01-03T12:22:20.377Z,95.84
2018-01-03T12:23:20.373Z,94.89
2018-01-03T12:24:20.364Z,94.70
2018-01-03T12:25:20.360Z,94.42
2018-01-03T12:26:20.354Z,95.36
2018-01-03T12:27:20.350Z,93.75
2018-01-03T12:28:20.343Z,94.79
2018-01-03T12:29:20.336Z,96.31
2018-01-03T12:30:20.331Z,94.60
2018-01-03T12:31:20.325Z,94.70
2018-01-03T12:32:20.319Z,95.46
2018-01-03T12:33:20.313Z,95.46
2018-01-03T12:34:20.307Z,96.22
2018-01-03T12:35:20.302Z,96.50
2018-01-03T12:36:20.294Z,96.41
2018-01-03T12:37:20.290Z,95.08
2018-01-03T12:38:20.284Z,95.08
2018-01-03T12:39:20.279Z,95.17
2018-01-03T12:40:20.326Z,94.13
2018-01-03T12:41:20.267Z,94.79
2018-01-03T12:42:20.262Z,95.36
2018-01-03T12:43:20.255Z,95.27
2018-01-03T12:44:20.250Z,94.79
2018-01-03T12:45:20.244Z,95.36
2018-01-03T12:46:20.239Z,92.99
2018-01-03T12:47:20.233Z,94.13
2018-01-03T12:48:20.227Z,93.84
2018-01-03T12:49:20.221Z,94.13
2018-01-03T12:50:20.215Z,92.71
2018-01-03T12:51:20.210Z,92.99
2018-01-03T12:52:20.204Z,91.85